Time;durP1;ratioP1;P1;durP2;ratioP2;P2;SDS_P1;SDS_P2;PMS_P1;PMS_P2;Temp;Humidity;BMP_temperature;BMP_pressure;BME280_temperature;BME280_humidity;BME280_pressure;Samples;Min_cycle;Max_cycle;Signal;HPM_P1;HPM_P2
2021/01/01 00:00:18;;;;;;;1.77;0.90;;;;;;;3.07;100.00;100235.58;1779240;80;21134;-46
2021/01/01 00:02:46;;;;;;;0.60;0.57;;;;;;;3.04;100.00;100232.52;1770965;80;21106;-46
2021/01/01 00:07:54;;;;;;;1.27;0.50;;;;;;;3.06;100.00;100233.11;1831545;76;29141;-45
2021/01/01 00:10:21;;;;;;;2.50;2.22;;;;;;;2.97;100.00;100233.47;1764518;78;21107;-45
2021/01/01 00:12:48;;;;;;;0.65;0.65;;;;;;;2.94;100.00;100235.80;1767210;80;21171;-45
2021/01/01 00:15:16;;;;;;;1.92;1.00;;;;;;;2.90;100.00;100226.55;1771780;78;21128;-45
2021/01/01 00:17:43;;;;;;;1.57;0.90;;;;;;;2.84;100.00;100235.03;1785722;80;21150;-44
2021/01/01 00:20:11;;;;;;;2.17;1.17;;;;;;;2.81;100.00;100235.50;1774122;80;21114;-46
2021/01/01 00:22:39;;;;;;;0.55;0.55;;;;;;;2.76;100.00;100235.38;1767460;80;21103;-45
2021/01/01 00:25:08;;;;;;;1.17;0.90;;;;;;;2.68;100.00;100235.20;1739165;81;21149;-45
2021/01/01 00:27:36;;;;;;;1.05;0.72;;;;;;;2.56;100.00;100235.17;1762433;80;21137;-45
2021/01/01 00:30:05;;;;;;;0.25;0.23;;;;;;;2.48;100.00;100237.40;1764434;80;21158;-44
2021/01/01 00:32:33;;;;;;;1.22;1.12;;;;;;;2.42;100.00;100235.61;1776435;80;21197;-45
2021/01/01 00:35:00;;;;;;;1.90;1.12;;;;;;;2.35;100.00;100240.59;1771287;80;21455;-45
2021/01/01 00:37:28;;;;;;;2.40;1.25;;;;;;;2.29;100.00;100236.63;1761734;80;21141;-45
2021/01/01 00:39:55;;;;;;;1.60;1.50;;;;;;;2.19;100.00;100227.75;1767116;78;21166;-45
2021/01/01 00:42:43;;;;;;;0.70;0.70;;;;;;;2.12;100.00;100233.76;1778347;80;21141;-45
2021/01/01 00:45:11;;;;;;;0.57;0.57;;;;;;;2.05;100.00;100222.24;1767887;80;21161;-45
2021/01/01 00:47:39;;;;;;;2.00;1.80;;;;;;;1.99;100.00;100221.30;1758053;78;21125;-45
2021/01/01 00:50:08;;;;;;;0.55;0.55;;;;;;;1.93;100.00;100220.88;1782758;80;21134;-45
2021/01/01 00:52:36;;;;;;;3.33;1.10;;;;;;;1.87;100.00;100216.37;1762527;78;21139;-46
2021/01/01 00:55:06;;;;;;;1.62;0.72;;;;;;;1.79;100.00;100220.21;1769944;80;21567;-45
2021/01/01 00:57:34;;;;;;;3.47;1.77;;;;;;;1.75;100.00;100215.50;1780580;78;21410;-45
2021/01/01 01:00:07;;;;;;;0.70;0.70;;;;;;;1.70;100.00;100204.88;1767112;80;21663;-45
2021/01/01 01:02:35;;;;;;;2.33;1.45;;;;;;;1.67;100.00;100199.95;1778469;78;21137;-44
2021/01/01 01:05:03;;;;;;;0.20;0.20;;;;;;;1.66;100.00;100207.74;1772197;80;21159;-44
2021/01/01 01:07:31;;;;;;;1.30;0.75;;;;;;;1.64;100.00;100207.14;1768516;78;21130;-44
2021/01/01 01:09:58;;;;;;;0.98;0.90;;;;;;;1.63;100.00;100201.97;1790203;79;21110;-44
2021/01/01 01:12:29;;;;;;;1.35;0.50;;;;;;;1.61;100.00;100194.13;1768998;78;21115;-45
2021/01/01 01:14:56;;;;;;;1.02;0.33;;;;;;;1.61;100.00;100190.09;1789929;79;21406;-45
2021/01/01 01:17:24;;;;;;;0.30;0.30;;;;;;;1.61;100.00;100192.78;1773149;78;21137;-44
2021/01/01 01:19:51;;;;;;;3.00;0.72;;;;;;;1.60;100.00;100180.34;1785828;79;21111;-45
2021/01/01 01:22:19;;;;;;;0.40;0.40;;;;;;;1.61;100.00;100177.97;1781211;79;21114;-45
2021/01/01 01:24:46;;;;;;;0.25;0.25;;;;;;;1.63;100.00;100182.61;1780931;79;21134;-44
2021/01/01 01:27:13;;;;;;;1.30;1.20;;;;;;;1.61;100.00;100177.97;1772326;79;21121;-46
2021/01/01 01:29:40;;;;;;;0.57;0.55;;;;;;;1.61;100.00;100179.85;1785710;79;21142;-46
2021/01/01 01:32:08;;;;;;;1.12;1.02;;;;;;;1.60;100.00;100183.05;1773902;78;21154;-45
2021/01/01 01:34:35;;;;;;;1.72;1.62;;;;;;;1.60;100.00;100174.96;1782499;79;21172;-44
2021/01/01 01:37:04;;;;;;;0.60;0.60;;;;;;;1.58;100.00;100181.09;1788879;78;21129;-44
2021/01/01 01:39:32;;;;;;;1.60;1.50;;;;;;;1.58;100.00;100181.09;1783801;79;21145;-45
2021/01/01 01:42:00;;;;;;;0.70;0.70;;;;;;;1.59;100.00;100173.33;1789333;78;21667;-45
2021/01/01 01:44:27;;;;;;;0.53;0.53;;;;;;;1.61;100.00;100173.94;1776495;79;21101;-45
2021/01/01 01:46:55;;;;;;;0.88;0.42;;;;;;;1.62;100.00;100172.87;1780311;78;21129;-44
2021/01/01 01:49:22;;;;;;;0.60;0.60;;;;;;;1.64;100.00;100163.23;1784601;80;21103;-44
2021/01/01 01:51:49;;;;;;;6.45;0.57;;;;;;;1.66;100.00;100161.13;1775346;78;21541;-44
2021/01/01 01:54:18;;;;;;;0.35;0.35;;;;;;;1.69;100.00;100162.02;1741264;79;21436;-45
2021/01/01 01:56:46;;;;;;;0.47;0.47;;;;;;;1.72;100.00;100173.67;1778601;78;21166;-44
2021/01/01 01:59:15;;;;;;;5.58;1.42;;;;;;;1.71;100.00;100174.20;1785754;79;21117;-45
2021/01/01 02:01:43;;;;;;;1.30;0.82;;;;;;;1.69;100.00;100165.53;1788204;79;21117;-45
2021/01/01 02:04:11;;;;;;;1.90;1.10;;;;;;;1.67;100.00;100151.45;1773877;79;21170;-44
2021/01/01 02:06:41;;;;;;;0.17;0.17;;;;;;;1.66;100.00;100155.22;1780557;78;21154;-46
2021/01/01 02:09:12;;;;;;;0.13;0.13;;;;;;;1.63;100.00;100152.98;1776287;78;21425;-44
2021/01/01 02:11:40;;;;;;;0.30;0.30;;;;;;;1.61;100.00;100147.00;1776758;80;21682;-44
2021/01/01 02:14:07;;;;;;;0.95;0.82;;;;;;;1.60;100.00;100148.03;1762773;78;21097;-46
2021/01/01 02:16:35;;;;;;;0.30;0.30;;;;;;;1.59;100.00;100146.40;1779796;80;21737;-43
2021/01/01 02:19:03;;;;;;;1.35;1.25;;;;;;;1.55;100.00;100146.55;1750651;80;21114;-45
2021/01/01 02:21:31;;;;;;;1.65;0.98;;;;;;;1.52;100.00;100136.23;1763507;80;21588;-45
2021/01/01 02:23:58;;;;;;;3.80;1.35;;;;;;;1.50;100.00;100128.91;1780786;78;21150;-45
2021/01/01 02:26:25;;;;;;;0.55;0.55;;;;;;;1.50;100.00;100129.72;1765540;80;21153;-44
2021/01/01 02:28:53;;;;;;;0.85;0.82;;;;;;;1.49;100.00;100127.27;1762840;80;21587;-45
2021/01/01 02:31:20;;;;;;;0.10;0.10;;;;;;;1.50;100.00;100135.63;1782249;80;21589;-45
2021/01/01 02:33:48;;;;;;;1.75;0.57;;;;;;;1.52;100.00;100129.50;1762358;78;21204;-47
2021/01/01 02:36:15;;;;;;;1.00;0.90;;;;;;;1.54;100.00;100130.10;1765916;80;21169;-45
2021/01/01 02:38:42;;;;;;;3.52;1.85;;;;;;;1.54;100.00;100126.06;1777023;78;21115;-45
2021/01/01 02:41:10;;;;;;;1.20;0.40;;;;;;;1.54;100.00;100128.75;1766972;80;21157;-45
2021/01/01 02:43:37;;;;;;;1.55;0.70;;;;;;;1.55;100.00;100125.53;1775837;78;21441;-45
2021/01/01 02:46:05;;;;;;;1.00;0.45;;;;;;;1.55;100.00;100126.88;1773168;80;21411;-45
2021/01/01 02:48:33;;;;;;;1.65;1.47;;;;;;;1.56;100.00;100117.23;1761397;78;21214;-45
2021/01/01 02:51:00;;;;;;;1.27;0.98;;;;;;;1.54;100.00;100115.29;1776135;80;21098;-46
2021/01/01 02:53:28;;;;;;;0.98;0.98;;;;;;;1.55;100.00;100114.23;1781437;80;21150;-46
2021/01/01 02:55:56;;;;;;;1.55;0.53;;;;;;;1.55;100.00;100108.84;1769758;80;21174;-45
2021/01/01 02:58:23;;;;;;;0.60;0.60;;;;;;;1.56;100.00;100111.00;1763639;80;21154;-45
2021/01/01 03:00:51;;;;;;;0.57;0.40;;;;;;;1.54;100.00;100107.74;1779178;80;21106;-45
2021/01/01 03:03:19;;;;;;;0.53;0.53;;;;;;;1.51;100.00;100102.29;1772755;80;21142;-45
2021/01/01 03:05:47;;;;;;;0.85;0.85;;;;;;;1.48;100.00;100097.34;1773233;80;21452;-46
2021/01/01 03:08:14;;;;;;;1.05;0.85;;;;;;;1.47;100.00;100105.13;1773944;80;21154;-46
2021/01/01 03:10:42;;;;;;;0.10;0.10;;;;;;;1.45;100.00;100097.27;1782670;80;21142;-44
2021/01/01 03:13:09;;;;;;;1.22;1.10;;;;;;;1.44;100.00;100105.59;1765267;80;21101;-46
2021/01/01 03:15:37;;;;;;;1.15;0.60;;;;;;;1.44;100.00;100099.67;1779728;80;21125;-45
2021/01/01 03:18:04;;;;;;;0.82;0.82;;;;;;;1.45;100.00;100099.96;1786566;80;21177;-45
2021/01/01 03:20:33;;;;;;;0.10;0.10;;;;;;;1.46;100.00;100111.05;1777031;80;21145;-45
2021/01/01 03:23:00;;;;;;;2.00;0.65;;;;;;;1.48;100.00;100108.11;1768271;80;21114;-45
2021/01/01 03:25:27;;;;;;;0.70;0.70;;;;;;;1.49;100.00;100107.89;1748563;81;21162;-45
2021/01/01 03:27:55;;;;;;;1.55;1.32;;;;;;;1.49;100.00;100101.16;1753780;81;21398;-45
2021/01/01 03:30:22;;;;;;;0.80;0.80;;;;;;;1.52;100.00;100096.38;1748761;81;21191;-45
2021/01/01 03:32:49;;;;;;;0.10;0.10;;;;;;;1.54;100.00;100095.63;1750925;81;21158;-47
2021/01/01 03:35:17;;;;;;;0.33;0.33;;;;;;;1.55;100.00;100096.72;1746705;81;21703;-46
2021/01/01 03:37:44;;;;;;;0.88;0.88;;;;;;;1.58;100.00;100096.26;1750312;81;21121;-45
2021/01/01 03:40:12;;;;;;;0.53;0.53;;;;;;;1.62;100.00;100092.60;1734629;81;21139;-44
2021/01/01 03:42:39;;;;;;;3.45;1.35;;;;;;;1.67;100.00;100088.16;1733741;82;21245;-44
2021/01/01 03:45:10;;;;;;;0.50;0.35;;;;;;;1.70;100.00;100078.27;1721559;82;21141;-45
2021/01/01 03:47:38;;;;;;;0.82;0.82;;;;;;;1.74;100.00;100084.56;1736191;82;21433;-45
2021/01/01 03:50:08;;;;;;;0.23;0.23;;;;;;;1.77;100.00;100068.75;1789238;80;21102;-45
2021/01/01 03:52:35;;;;;;;0.45;0.45;;;;;;;1.81;100.00;100067.77;1772749;80;21123;-45
2021/01/01 03:55:03;;;;;;;3.22;0.98;;;;;;;1.83;100.00;100054.87;1784552;80;21126;-46
2021/01/01 03:57:31;;;;;;;0.23;0.23;;;;;;;1.84;100.00;100060.57;1771548;80;21192;-45
2021/01/01 03:59:58;;;;;;;1.07;0.75;;;;;;;1.82;100.00;100055.94;1773934;80;21174;-46
2021/01/01 04:02:26;;;;;;;0.45;0.10;;;;;;;1.82;100.00;100054.59;1777322;80;21114;-45
2021/01/01 04:04:53;;;;;;;0.40;0.40;;;;;;;1.84;100.00;100062.73;1749927;81;21103;-45
2021/01/01 04:07:21;;;;;;;1.45;0.55;;;;;;;1.88;100.00;100060.38;1750033;80;21603;-45
2021/01/01 04:09:48;;;;;;;8.83;1.22;;;;;;;1.93;100.00;100051.10;1706483;81;21616;-45
2021/01/01 04:12:15;;;;;;;1.00;0.68;;;;;;;1.97;100.00;100037.97;1719941;83;21179;-45
2021/01/01 04:14:43;;;;;;;2.00;1.22;;;;;;;2.01;100.00;100035.12;1701067;81;21118;-47
2021/01/01 04:17:11;;;;;;;0.00;0.00;;;;;;;2.07;100.00;100040.37;1702787;83;21206;-46
2021/01/01 04:19:38;;;;;;;6.17;1.70;;;;;;;2.13;100.00;100030.55;1722129;81;21486;-46
2021/01/01 04:22:05;;;;;;;1.15;1.05;;;;;;;2.19;100.00;100036.87;1709566;82;21162;-45
2021/01/01 04:24:33;;;;;;;0.40;0.40;;;;;;;2.25;100.00;100045.36;1721451;81;21170;-45
2021/01/01 04:27:00;;;;;;;1.20;1.10;;;;;;;2.30;100.00;100041.43;1725260;81;21111;-45
2021/01/01 04:29:28;;;;;;;0.82;0.82;;;;;;;2.34;100.00;100034.52;1746187;80;21163;-45
2021/01/01 04:31:55;;;;;;;2.37;1.55;;;;;;;2.40;100.00;100041.69;1740900;81;21134;-46
2021/01/01 04:34:22;;;;;;;0.57;0.30;;;;;;;2.46;100.00;100038.03;1742294;80;21132;-46
2021/01/01 04:36:50;;;;;;;0.50;0.42;;;;;;;2.53;100.00;100044.66;1743291;81;21142;-47
2021/01/01 04:39:18;;;;;;;1.77;0.95;;;;;;;2.57;100.00;100039.91;1741113;80;21124;-46
2021/01/01 04:41:45;;;;;;;0.55;0.55;;;;;;;2.63;100.00;100032.74;1738234;81;21606;-46
2021/01/01 04:44:12;;;;;;;0.98;0.98;;;;;;;2.69;100.00;100042.56;1689007;83;21414;-45
2021/01/01 04:46:40;;;;;;;2.47;1.70;;;;;;;2.76;100.00;100049.20;1683307;83;21151;-46
2021/01/01 04:49:07;;;;;;;1.52;1.42;;;;;;;2.84;100.00;100046.66;1681915;83;21130;-46
2021/01/01 04:51:35;;;;;;;3.45;3.10;;;;;;;2.90;100.00;100046.53;1686103;84;21126;-45
2021/01/01 04:54:03;;;;;;;6.55;1.02;;;;;;;2.97;100.00;100036.42;1706158;81;21410;-45
2021/01/01 04:56:30;;;;;;;1.02;0.93;;;;;;;3.05;100.00;100045.20;1716108;83;21555;-46
2021/01/01 04:58:59;;;;;;;3.37;0.78;;;;;;;3.07;100.00;100048.49;1683475;83;21498;-45
2021/01/01 05:01:26;;;;;;;4.37;0.90;;;;;;;3.05;100.00;100041.97;1742179;81;21573;-45
2021/01/01 05:03:53;;;;;;;3.20;0.80;;;;;;;3.03;100.00;100044.63;1718609;81;21106;-46
2021/01/01 05:06:30;;;;;;;1.07;0.85;;;;;;;3.00;100.00;100049.44;1729919;82;21521;-46
2021/01/01 05:09:00;;;;;;;0.42;0.42;;;;;;;2.97;100.00;100047.22;1739453;81;21171;-46
2021/01/01 05:11:28;;;;;;;1.12;0.68;;;;;;;2.97;100.00;100049.10;1729320;81;21213;-45
2021/01/01 05:13:57;;;;;;;1.17;1.12;;;;;;;2.97;100.00;100049.10;1774330;80;21138;-46
2021/01/01 05:16:24;;;;;;;1.17;1.17;;;;;;;2.95;100.00;100048.52;1776332;80;21114;-46
2021/01/01 05:18:52;;;;;;;0.88;0.53;;;;;;;2.92;100.00;100054.41;1782795;80;21572;-46
2021/01/01 05:21:27;;;;;;;1.37;0.57;;;;;;;2.89;100.00;100062.95;1779447;80;21089;-46
2021/01/01 05:23:55;;;;;;;1.75;1.65;;;;;;;2.86;100.00;100060.20;1768052;80;21166;-45
2021/01/01 05:26:27;;;;;;;3.70;2.17;;;;;;;2.84;100.00;100062.31;1728721;82;21153;-46
2021/01/01 05:29:06;;;;;;;2.62;0.95;;;;;;;2.83;100.00;100060.69;1699751;83;21137;-45
2021/01/01 05:31:39;;;;;;;0.40;0.40;;;;;;;2.82;100.00;100056.36;1699508;83;21425;-48
2021/01/01 05:34:13;;;;;;;3.33;1.10;;;;;;;2.82;100.00;100061.75;1715303;82;21602;-46
2021/01/01 05:36:42;;;;;;;0.40;0.40;;;;;;;2.80;100.00;100058.47;1726753;82;21596;-46
2021/01/01 05:39:18;;;;;;;0.60;0.60;;;;;;;2.79;100.00;100066.25;1784025;80;21561;-46
2021/01/01 05:41:50;;;;;;;0.65;0.65;;;;;;;2.78;100.00;100062.73;1764366;80;21110;-46
2021/01/01 05:44:23;;;;;;;1.10;1.10;;;;;;;2.77;100.00;100063.00;1780220;80;21134;-47
2021/01/01 05:47:00;;;;;;;0.47;0.47;;;;;;;2.75;100.00;100063.76;1769385;80;21608;-46
2021/01/01 05:49:35;;;;;;;1.27;1.17;;;;;;;2.77;100.00;100061.64;1769212;80;21193;-46
2021/01/01 05:52:17;;;;;;;0.33;0.33;;;;;;;2.79;100.00;100063.55;1782835;80;21086;-45
2021/01/01 05:54:47;;;;;;;;;;;;;;;2.81;100.00;100058.75;1770411;80;21129;-46
2021/01/01 05:57:15;;;;;;;0.53;0.42;;;;;;;2.83;100.00;100056.63;1778536;80;20264;-45
2021/01/01 05:59:45;;;;;;;0.40;0.30;;;;;;;2.85;100.00;100055.88;1763833;80;21327;-45
2021/01/01 06:02:13;;;;;;;0.98;0.98;;;;;;;2.89;100.00;100059.72;1723491;82;21153;-45
2021/01/01 06:04:41;;;;;;;2.60;0.70;;;;;;;2.92;100.00;100061.96;1776767;80;21118;-46
2021/01/01 06:07:11;;;;;;;1.42;1.37;;;;;;;2.94;100.00;100061.70;1781753;80;21127;-46
2021/01/01 06:09:39;;;;;;;0.40;0.40;;;;;;;2.97;100.00;100059.36;1766647;79;21133;-46
2021/01/01 06:12:12;;;;;;;1.92;1.80;;;;;;;3.01;100.00;100063.74;1782130;80;22275;-45
2021/01/01 06:14:45;;;;;;;2.72;1.50;;;;;;;3.06;100.00;100053.58;1785556;80;21134;-46
2021/01/01 06:17:17;;;;;;;0.47;0.47;;;;;;;3.12;100.00;100052.64;1791739;80;21156;-46
2021/01/01 06:19:57;;;;;;;0.80;0.25;;;;;;;3.20;100.00;100049.55;1763688;80;21984;-45
2021/01/01 06:22:26;;;;;;;0.50;0.50;;;;;;;3.30;100.00;100050.28;1775573;80;21129;-45
2021/01/01 06:24:58;;;;;;;0.13;0.13;;;;;;;3.40;100.00;100053.98;1785723;80;21146;-45
2021/01/01 06:27:28;;;;;;;0.57;0.57;;;;;;;3.52;100.00;100055.28;1775975;80;21186;-46
2021/01/01 06:30:05;;;;;;;1.35;1.25;;;;;;;3.63;100.00;100064.38;1784001;80;21161;-45
2021/01/01 06:32:33;;;;;;;1.15;0.93;;;;;;;3.70;100.00;100059.65;1782038;80;21646;-46
2021/01/01 06:35:22;;;;;;;0.62;0.45;;;;;;;3.78;100.00;100041.67;1784681;80;21433;-46
2021/01/01 06:37:51;;;;;;;0.47;0.47;;;;;;;3.86;100.00;100044.53;1714105;82;21432;-46
2021/01/01 06:40:27;;;;;;;2.45;1.77;;;;;;;3.92;100.00;100042.19;1784003;80;21137;-45
2021/01/01 06:43:03;;;;;;;0.85;0.85;;;;;;;3.97;100.00;100053.62;1772455;80;21122;-47
2021/01/01 06:45:36;;;;;;;1.90;1.25;;;;;;;4.01;100.00;100046.67;1777549;80;21149;-47
2021/01/01 06:48:09;;;;;;;0.88;0.88;;;;;;;4.04;100.00;100043.47;1784552;80;21110;-47
2021/01/01 06:50:43;;;;;;;0.62;0.57;;;;;;;4.07;100.00;100045.67;1769645;80;21583;-48
2021/01/01 06:53:15;;;;;;;2.40;0.88;;;;;;;4.13;100.00;100047.41;1786750;80;21150;-49
2021/01/01 06:55:44;;;;;;;;;;;;;;;4.18;100.00;100049.34;1772202;80;21117;-47
2021/01/01 06:58:13;;;;;;;1.10;0.80;;;;;;;4.23;100.00;100043.50;1765317;80;20792;-48
2021/01/01 07:00:52;;;;;;;2.17;0.90;;;;;;;4.30;100.00;100057.67;1770445;80;21406;-47
2021/01/01 07:03:36;;;;;;;0.40;0.35;;;;;;;4.37;100.00;100056.67;1782599;80;21141;-47
2021/01/01 07:06:09;;;;;;;1.27;0.80;;;;;;;4.42;100.00;100060.80;1778019;80;21588;-47
2021/01/01 07:08:46;;;;;;;0.10;0.10;;;;;;;4.46;100.00;100062.77;1780645;80;21145;-48
2021/01/01 07:11:23;;;;;;;1.65;0.62;;;;;;;4.53;100.00;100054.48;1766152;80;21167;-48
2021/01/01 07:14:05;;;;;;;8.03;1.10;;;;;;;4.56;100.00;100057.22;1770620;79;21172;-47
2021/01/01 07:16:38;;;;;;;0.90;0.90;;;;;;;4.58;100.00;100068.63;1767150;80;21114;-48
2021/01/01 07:19:05;;;;;;;;;;;;;;;4.65;100.00;100067.89;1777774;80;21137;-48
2021/01/01 07:21:32;;;;;;;1.27;1.12;;;;;;;4.71;100.00;100066.36;1769437;79;20237;-48
2021/01/01 07:24:00;;;;;;;0.55;0.55;;;;;;;4.75;100.00;100066.70;1769236;80;21384;-49
2021/01/01 07:26:29;;;;;;;0.15;0.15;;;;;;;4.82;100.00;100062.44;1774568;79;21116;-49
2021/01/01 07:28:59;;;;;;;1.27;0.30;;;;;;;4.88;100.00;100056.84;1771322;80;21136;-48
2021/01/01 07:31:27;;;;;;;0.95;0.95;;;;;;;4.96;100.00;100055.05;1775962;79;21155;-50
2021/01/01 07:33:57;;;;;;;4.35;1.00;;;;;;;5.04;100.00;100052.42;1774509;80;21478;-49
2021/01/01 07:36:25;;;;;;;9.35;2.47;;;;;;;5.14;100.00;100051.22;1764681;79;21144;-49
2021/01/01 07:38:52;;;;;;;2.90;0.90;;;;;;;5.25;100.00;100045.91;1779127;80;21097;-49
2021/01/01 07:41:22;;;;;;;1.30;1.22;;;;;;;5.34;100.00;100055.20;1769173;79;21136;-50
2021/01/01 07:43:50;;;;;;;1.45;1.32;;;;;;;5.42;100.00;100052.06;1772504;80;21629;-48
2021/01/01 07:46:17;;;;;;;0.45;0.35;;;;;;;5.50;100.00;100069.20;1757833;79;21556;-48
2021/01/01 07:48:54;;;;;;;1.50;1.40;;;;;;;5.57;100.00;100067.66;1768739;80;21155;-47
2021/01/01 07:51:22;;;;;;;0.68;0.68;;;;;;;5.63;100.00;100066.63;1754037;79;21113;-48
2021/01/01 07:53:49;;;;;;;0.65;0.65;;;;;;;5.68;100.00;100074.80;1775736;80;21180;-50
2021/01/01 07:56:20;;;;;;;0.20;0.20;;;;;;;5.72;100.00;100078.66;1760017;79;21145;-50
2021/01/01 07:58:48;;;;;;;1.02;1.02;;;;;;;5.75;100.00;100070.54;1765105;79;21694;-49
2021/01/01 08:01:18;;;;;;;1.85;1.65;;;;;;;5.78;100.00;100072.73;1711106;81;21161;-48
2021/01/01 08:03:47;;;;;;;0.57;0.57;;;;;;;5.80;100.00;100075.47;1716713;80;21160;-49
2021/01/01 08:06:14;;;;;;;0.35;0.30;;;;;;;5.82;100.00;100079.29;1751366;80;21136;-49
2021/01/01 08:08:41;;;;;;;0.35;0.35;;;;;;;5.86;100.00;100080.94;1774121;79;21188;-48
2021/01/01 08:11:09;;;;;;;1.52;1.15;;;;;;;5.89;100.00;100075.02;1740792;81;21515;-47
2021/01/01 08:13:37;;;;;;;1.00;0.25;;;;;;;5.90;100.00;100085.59;1715514;83;21138;-48
2021/01/01 08:16:15;;;;;;;1.05;0.95;;;;;;;5.92;100.00;100083.45;1710909;81;21137;-48
2021/01/01 08:18:43;;;;;;;1.25;1.15;;;;;;;5.92;100.00;100086.16;1710863;81;21159;-48
2021/01/01 08:21:10;;;;;;;1.32;1.05;;;;;;;5.94;100.00;100079.97;1717061;83;21111;-49
2021/01/01 08:23:58;;;;;;;0.75;0.75;;;;;;;5.96;100.00;100082.41;1740955;81;21181;-48
2021/01/01 08:26:26;;;;;;;0.17;0.17;;;;;;;5.98;100.00;100087.05;1709560;83;21128;-48
2021/01/01 08:28:54;;;;;;;0.35;0.35;;;;;;;5.99;100.00;100084.09;1748644;80;21154;-50
2021/01/01 08:31:21;;;;;;;2.90;0.55;;;;;;;6.02;100.00;100086.27;1707708;83;21497;-49
2021/01/01 08:33:53;;;;;;;0.33;0.33;;;;;;;6.06;100.00;100085.75;1707389;83;21654;-47
2021/01/01 08:36:31;;;;;;;0.55;0.55;;;;;;;6.08;100.00;100082.25;1704583;83;21150;-48
2021/01/01 08:39:10;;;;;;;0.65;0.65;;;;;;;6.10;100.00;100082.81;1707429;82;21135;-48
2021/01/01 08:41:46;;;;;;;0.60;0.60;;;;;;;6.14;100.00;100088.02;1716032;82;21149;-47
2021/01/01 08:44:15;;;;;;;0.90;0.90;;;;;;;6.17;100.00;100084.77;1713927;81;21421;-47
2021/01/01 08:46:43;;;;;;;0.42;0.42;;;;;;;6.19;100.00;100082.62;1732328;82;21141;-49
2021/01/01 08:49:20;;;;;;;0.30;0.15;;;;;;;6.21;100.00;100090.78;1729111;82;21131;-47
2021/01/01 08:51:48;;;;;;;0.62;0.62;;;;;;;6.23;100.00;100083.72;1725932;81;21651;-47
2021/01/01 08:54:25;;;;;;;0.95;0.95;;;;;;;6.24;100.00;100089.45;1735841;81;21122;-48
2021/01/01 08:57:00;;;;;;;0.85;0.85;;;;;;;6.27;100.00;100087.56;1716267;82;21429;-48
2021/01/01 08:59:28;;;;;;;2.22;1.07;;;;;;;6.29;100.00;100082.70;1728671;82;21142;-48
2021/01/01 09:01:56;;;;;;;0.35;0.33;;;;;;;6.31;100.00;100084.63;1716466;82;21129;-48
2021/01/01 09:04:25;;;;;;;1.65;0.72;;;;;;;6.33;100.00;100081.63;1712296;82;21110;-48
2021/01/01 09:07:02;;;;;;;1.55;0.50;;;;;;;6.34;100.00;100090.88;1729789;82;21117;-47
2021/01/01 09:09:32;;;;;;;0.78;0.78;;;;;;;6.38;100.00;100083.86;1724593;81;21167;-47
2021/01/01 09:12:14;;;;;;;1.25;1.15;;;;;;;6.42;100.00;100086.86;1735038;80;21450;-47
2021/01/01 09:14:52;;;;;;;0.30;0.30;;;;;;;6.48;100.00;100086.34;1726501;82;24661;-47
2021/01/01 09:17:23;;;;;;;1.27;1.17;;;;;;;6.54;100.00;100086.67;1733964;81;21813;-49
2021/01/01 09:20:09;;;;;;;0.80;0.80;;;;;;;6.63;100.00;100080.50;1724482;82;21166;-47
2021/01/01 09:22:38;;;;;;;1.90;0.45;;;;;;;6.74;100.00;100073.22;1719241;81;21446;-47
2021/01/01 09:25:25;;;;;;;0.33;0.33;;;;;;;6.84;100.00;100077.89;1731191;82;21150;-47
2021/01/01 09:27:53;;;;;;;1.60;1.12;;;;;;;6.93;100.00;100075.50;1727816;82;21533;-47
2021/01/01 09:30:24;;;;;;;0.15;0.15;;;;;;;7.00;100.00;100073.37;1732554;82;21105;-47
2021/01/01 09:33:00;;;;;;;0.80;0.80;;;;;;;7.08;100.00;100067.41;1747539;81;21174;-46
2021/01/01 09:35:28;;;;;;;0.30;0.30;;;;;;;7.16;100.00;100064.73;1736245;81;21671;-46
2021/01/01 09:37:59;;;;;;;1.32;1.25;;;;;;;7.23;100.00;100062.03;1734518;81;21142;-46
2021/01/01 09:40:32;;;;;;;0.98;0.98;;;;;;;7.28;100.00;100064.77;1728914;82;21109;-46
2021/01/01 09:43:02;;;;;;;0.13;0.13;;;;;;;7.31;100.00;100061.50;1729350;82;21110;-47
2021/01/01 09:45:29;;;;;;;0.40;0.40;;;;;;;7.32;100.00;100065.88;1734263;82;21579;-46
2021/01/01 09:47:57;;;;;;;2.12;1.35;;;;;;;7.34;100.00;100065.59;1747552;81;21062;-48
2021/01/01 09:50:24;;;;;;;1.35;0.88;;;;;;;7.35;100.00;100072.68;1714837;82;21215;-48
2021/01/01 09:52:51;;;;;;;1.30;1.10;;;;;;;7.36;100.00;100080.28;1726971;82;21134;-47
2021/01/01 09:55:19;;;;;;;1.95;0.62;;;;;;;7.36;100.00;100074.30;1752858;81;21143;-46
2021/01/01 09:57:47;;;;;;;3.22;0.72;;;;;;;7.40;100.00;100066.44;1735050;81;21125;-47
2021/01/01 10:00:16;;;;;;;0.10;0.10;;;;;;;7.45;100.00;100071.89;1719356;81;21156;-46
2021/01/01 10:02:43;;;;;;;1.15;1.12;;;;;;;7.50;100.00;100067.28;1742331;81;21135;-47
2021/01/01 10:05:11;;;;;;;3.00;1.40;;;;;;;7.56;100.00;100065.38;1720665;81;21109;-46
2021/01/01 10:07:39;;;;;;;0.35;0.35;;;;;;;7.62;100.00;100068.95;1729798;82;21519;-47
2021/01/01 10:10:08;;;;;;;0.42;0.42;;;;;;;7.67;100.00;100075.20;1717846;81;21127;-47
2021/01/01 10:12:35;;;;;;;0.17;0.17;;;;;;;7.70;100.00;100066.50;1733810;81;21140;-47
2021/01/01 10:15:04;;;;;;;0.20;0.20;;;;;;;7.74;100.00;100070.33;1722728;80;21166;-47
2021/01/01 10:17:31;;;;;;;0.88;0.72;;;;;;;7.78;100.00;100074.67;1720458;82;21143;-48
2021/01/01 10:19:58;;;;;;;0.57;0.57;;;;;;;7.82;100.00;100066.25;1735132;80;21172;-47
2021/01/01 10:22:26;;;;;;;0.47;0.40;;;;;;;7.84;100.00;100064.60;1727242;82;21146;-46
2021/01/01 10:24:55;;;;;;;0.10;0.10;;;;;;;7.88;100.00;100072.51;1735479;80;21149;-48
2021/01/01 10:27:22;;;;;;;0.95;0.95;;;;;;;7.94;100.00;100071.44;1737126;82;21209;-47
2021/01/01 10:29:49;;;;;;;0.53;0.53;;;;;;;7.99;100.00;100078.24;1717549;80;21194;-47
2021/01/01 10:32:16;;;;;;;3.40;1.75;;;;;;;8.04;100.00;100071.99;1701159;82;21007;-46
2021/01/01 10:34:44;;;;;;;2.10;1.90;;;;;;;8.05;100.00;100067.62;1707229;82;21160;-47
2021/01/01 10:37:12;;;;;;;2.15;0.82;;;;;;;8.05;100.00;100068.98;1715263;83;21578;-45
2021/01/01 10:39:39;;;;;;;1.87;0.88;;;;;;;8.08;100.00;100064.89;1726435;80;21149;-46
2021/01/01 10:42:07;;;;;;;4.90;1.80;;;;;;;8.11;100.00;100069.27;1771732;80;21782;-48
2021/01/01 10:44:35;;;;;;;1.10;1.00;;;;;;;8.13;99.87;100065.70;1761044;78;21161;-46
2021/01/01 10:47:03;;;;;;;3.55;1.02;;;;;;;8.13;99.57;100058.90;1771898;80;21688;-47
2021/01/01 10:49:30;;;;;;;0.70;0.70;;;;;;;8.13;99.32;100055.37;1776482;80;21186;-46
2021/01/01 10:51:58;;;;;;;2.85;1.67;;;;;;;8.14;99.34;100060.55;1708665;83;21247;-46
2021/01/01 10:54:26;;;;;;;0.15;0.15;;;;;;;8.16;99.41;100066.55;1727001;80;21137;-47
2021/01/01 10:56:53;;;;;;;1.67;0.55;;;;;;;8.21;99.33;100060.28;1735836;82;21112;-47
2021/01/01 10:59:22;;;;;;;0.30;0.30;;;;;;;8.24;99.21;100061.64;1738754;80;21759;-45
2021/01/01 11:01:56;;;;;;;0.68;0.68;;;;;;;8.26;99.03;100064.36;1724478;82;21157;-46
2021/01/01 11:04:26;;;;;;;4.97;1.35;;;;;;;8.27;98.85;100067.34;1725699;82;21257;-47
2021/01/01 11:06:53;;;;;;;0.10;0.10;;;;;;;8.27;98.84;100065.17;1712654;82;21165;-48
2021/01/01 11:09:21;;;;;;;2.20;1.47;;;;;;;8.28;98.67;100069.52;1728257;80;21172;-46
2021/01/01 11:11:48;;;;;;;0.42;0.23;;;;;;;8.26;98.46;100065.73;1723707;82;21472;-47
2021/01/01 11:14:23;;;;;;;0.55;0.55;;;;;;;8.27;98.51;100069.26;1762823;80;21048;-46
2021/01/01 12:20:53;;;;;;;0.15;0.15;;;;;;;8.14;97.92;100108.18;1734917;81;21121;-45
2021/01/01 12:25:33;;;;;;;0.68;0.68;;;;;;;8.12;98.07;100108.98;1747186;80;21202;-46
2021/01/01 12:28:03;;;;;;;0.80;0.33;;;;;;;8.11;98.06;100111.45;1775874;80;21146;-46
2021/01/01 12:30:31;;;;;;;1.00;0.98;;;;;;;8.09;98.14;100111.45;1755057;80;21106;-47
2021/01/01 12:33:00;;;;;;;0.45;0.45;;;;;;;8.07;98.16;100119.88;1741111;81;21153;-46
2021/01/01 12:35:27;;;;;;;0.68;0.68;;;;;;;8.06;98.21;100116.05;1763291;80;21591;-46
2021/01/01 12:38:03;;;;;;;0.25;0.25;;;;;;;8.04;98.31;100120.97;1730921;81;21173;-47
2021/01/01 12:40:31;;;;;;;0.85;0.85;;;;;;;8.01;98.42;100123.69;1744589;80;21787;-46
2021/01/01 12:43:00;;;;;;;0.30;0.30;;;;;;;7.99;98.44;100129.94;1753932;81;21577;-46
2021/01/01 12:45:29;;;;;;;1.47;0.85;;;;;;;7.91;97.78;100136.73;1747508;81;21105;-46